Time;durP1;ratioP1;P1;durP2;ratioP2;P2;SDS_P1;SDS_P2;PMS_P1;PMS_P2;Temp;Humidity;BMP_temperature;BMP_pressure;BME280_temperature;BME280_humidity;BME280_pressure;Samples;Min_cycle;Max_cycle;Signal;HPM_P1;HPM_P2
2021/10/07 00:01:58;;;;;;;41.38;24.95;;;10.90;99.90;;;12.35;100.00;101172.31;6097390;23;20429;-78
2021/10/07 00:04:24;;;;;;;45.80;22.95;;;11.00;99.90;;;12.42;100.00;101168.91;6097048;23;20010;-79
2021/10/07 00:06:50;;;;;;;58.05;29.70;;;11.00;99.90;;;12.51;100.00;101173.16;6097136;23;20007;-82
2021/10/07 00:09:16;;;;;;;46.38;26.25;;;11.10;99.90;;;12.63;100.00;101184.31;6097214;23;20046;-80
2021/10/07 00:11:45;;;;;;;39.15;23.50;;;11.20;99.90;;;12.71;100.00;101185.31;6097831;23;20002;-78
2021/10/07 00:14:11;;;;;;;42.42;22.90;;;11.30;99.90;;;12.75;100.00;101186.19;6072711;23;20010;-82
2021/10/07 00:16:37;;;;;;;38.10;21.75;;;11.30;99.90;;;12.81;100.00;101201.56;6097172;23;20017;-82
2021/10/07 00:19:03;;;;;;;41.72;22.73;;;11.30;99.90;;;12.83;100.00;101195.63;6097873;23;20017;-83
2021/10/07 00:21:29;;;;;;;34.38;21.25;;;11.40;99.90;;;12.80;100.00;101197.16;6071824;23;20448;-82
2021/10/07 00:24:11;;;;;;;38.83;21.80;;;11.30;99.90;;;12.77;100.00;101206.28;6096635;23;20016;-79
2021/10/07 00:26:46;;;;;;;38.15;21.45;;;11.30;99.90;;;12.76;100.00;101210.25;6071345;23;20091;-80
2021/10/07 00:29:38;;;;;;;39.58;22.20;;;11.30;99.90;;;12.78;100.00;101209.91;6047783;23;20069;-81
2021/10/07 00:35:06;;;;;;;54.38;27.10;;;11.40;99.90;;;12.84;100.00;101214.09;6080918;23;20014;-77
2021/10/07 00:40:09;;;;;;;52.72;26.52;;;11.40;99.90;;;12.90;100.00;101221.88;6096816;23;20021;-82
2021/10/07 00:42:36;;;;;;;60.45;28.83;;;11.50;99.90;;;12.93;100.00;101237.97;6048538;23;20057;-83
2021/10/07 00:45:05;;;;;;;47.08;26.48;;;11.50;99.90;;;12.94;100.00;101233.19;6090979;23;20017;-82
2021/10/07 00:47:31;;;;;;;63.42;31.55;;;11.50;99.90;;;12.94;100.00;101241.59;6092058;23;20045;-82
2021/10/07 00:49:56;;;;;;;55.70;28.20;;;11.50;99.90;;;12.95;100.00;101244.03;6117750;23;20041;-80
2021/10/07 00:52:22;;;;;;;50.92;26.77;;;11.50;99.90;;;12.93;100.00;101234.34;6080027;23;20033;-81
2021/10/07 00:54:55;;;;;;;59.65;33.00;;;11.50;99.90;;;12.88;100.00;101232.59;6096561;23;20053;-79
2021/10/07 00:57:22;;;;;;;61.88;31.23;;;11.40;99.90;;;12.89;100.00;101234.25;6046625;23;20017;-79
2021/10/07 00:59:50;;;;;;;58.53;30.17;;;11.40;99.90;;;12.87;100.00;101235.78;6070449;23;20037;-80
2021/10/07 01:02:19;;;;;;;51.97;27.90;;;11.40;99.90;;;12.87;100.00;101241.41;6071042;23;20014;-80
2021/10/07 01:04:45;;;;;;;51.95;27.33;;;11.40;99.90;;;12.83;100.00;101235.69;6023331;23;20006;-80
2021/10/07 01:07:12;;;;;;;53.90;26.38;;;11.40;99.90;;;12.76;100.00;101240.28;6096362;23;20086;-79
2021/10/07 01:09:39;;;;;;;49.10;25.58;;;11.30;99.90;;;12.65;100.00;101234.38;6070308;23;20011;-81
2021/10/07 01:12:08;;;;;;;39.97;21.95;;;11.20;99.90;;;12.47;100.00;101233.88;6096236;23;20224;-80
2021/10/07 01:14:47;;;;;;;41.10;24.02;;;11.00;99.90;;;12.33;100.00;101236.25;6096266;23;20007;-77
2021/10/07 01:17:20;;;;;;;43.47;22.55;;;10.90;99.90;;;12.18;100.00;101239.00;6096735;23;20026;-77
2021/10/07 01:19:53;;;;;;;34.65;22.02;;;10.80;99.90;;;12.05;100.00;101239.03;6047005;23;20030;-78
2021/10/07 01:22:23;;;;;;;46.28;24.52;;;10.70;99.90;;;11.94;100.00;101240.72;6070866;23;20022;-81
2021/10/07 01:24:52;;;;;;;40.83;20.63;;;10.50;99.90;;;11.83;100.00;101250.75;6095975;23;20007;-81
2021/10/07 01:27:24;;;;;;;42.63;21.48;;;10.50;99.90;;;11.72;100.00;101246.78;6046796;23;20085;-81
2021/10/07 01:30:12;;;;;;;39.55;21.55;;;10.40;99.90;;;11.59;100.00;101250.75;6070675;23;20013;-79
2021/10/07 01:32:41;;;;;;;40.67;22.25;;;10.20;99.90;;;11.47;100.00;101257.16;6070811;23;20465;-82
2021/10/07 01:35:12;;;;;;;39.35;20.23;;;10.10;99.90;;;11.38;100.00;101253.66;6070898;23;20037;-81
2021/10/07 01:37:38;;;;;;;42.58;20.80;;;10.10;99.90;;;11.33;100.00;101255.88;6096025;23;20583;-79
2021/10/07 01:40:11;;;;;;;41.92;21.50;;;10.00;99.90;;;11.32;100.00;101260.66;6070530;23;20038;-78
2021/10/07 01:42:41;;;;;;;43.17;22.00;;;10.00;99.90;;;11.35;100.00;101259.13;6071569;23;20089;-81
2021/10/07 01:45:11;;;;;;;43.47;21.70;;;10.00;99.90;;;11.42;100.00;101262.16;6075491;23;20014;-81
2021/10/07 01:47:39;;;;;;;48.15;23.88;;;10.10;99.90;;;11.46;100.00;101265.91;6080882;23;20021;-78
2021/10/07 01:50:10;;;;;;;42.35;19.98;;;10.10;99.90;;;11.50;100.00;101275.22;6070650;23;20021;-79
2021/10/07 01:52:38;;;;;;;50.60;24.38;;;10.10;99.90;;;11.58;100.00;101269.53;6023658;23;20564;-80
2021/10/07 01:55:08;;;;;;;41.42;21.20;;;10.20;99.90;;;11.63;100.00;101274.06;6071496;23;20449;-81
2021/10/07 01:57:34;;;;;;;41.92;22.13;;;10.20;99.90;;;11.57;100.00;101267.88;6095540;23;20006;-81
2021/10/07 02:00:00;;;;;;;39.15;18.60;;;10.20;99.90;;;11.60;100.00;101269.16;6094049;23;20006;-77
2021/10/07 02:02:26;;;;;;;42.67;20.17;;;10.20;99.90;;;11.58;100.00;101275.13;6095827;23;20010;-79
2021/10/07 02:04:53;;;;;;;61.28;26.98;;;10.20;99.90;;;11.49;100.00;101273.59;6095700;23;20037;-79
2021/10/07 02:07:20;;;;;;;58.95;26.85;;;10.20;99.90;;;11.52;100.00;101279.31;6095606;23;20085;-78
2021/10/07 02:09:47;;;;;;;52.75;25.77;;;10.20;99.90;;;11.49;100.00;101277.19;6093667;23;20455;-77
2021/10/07 02:12:12;;;;;;;50.72;25.98;;;10.20;99.90;;;11.44;100.00;101282.22;6095398;23;20026;-80
2021/10/07 02:14:38;;;;;;;50.90;25.05;;;10.10;99.90;;;11.34;100.00;101275.09;6095278;23;20028;-79
2021/10/07 02:17:05;;;;;;;41.90;23.25;;;10.00;99.90;;;11.25;100.00;101277.19;6095730;23;19999;-77
2021/10/07 02:19:30;;;;;;;46.22;23.63;;;9.90;99.90;;;11.12;100.00;101281.13;6096120;23;20018;-78
2021/10/07 02:21:56;;;;;;;42.80;22.60;;;9.80;99.90;;;10.96;100.00;101275.38;6096191;23;20010;-79
2021/10/07 02:24:22;;;;;;;53.53;25.75;;;9.70;99.90;;;10.88;100.00;101281.91;6095560;23;20007;-77
2021/10/07 02:26:48;;;;;;;47.22;24.77;;;9.60;99.90;;;10.81;100.00;101284.44;6107360;23;20011;-81
2021/10/07 02:29:14;;;;;;;46.97;24.65;;;9.50;99.90;;;10.75;100.00;101279.41;6107100;23;20013;-81
2021/10/07 02:31:39;;;;;;;54.58;25.33;;;9.50;99.90;;;10.71;100.00;101298.00;6104588;23;20050;-83
2021/10/07 02:34:05;;;;;;;62.45;28.45;;;9.40;99.90;;;10.68;100.00;101305.09;6103999;23;20022;-81
2021/10/07 02:36:31;;;;;;;68.82;29.48;;;9.30;99.90;;;10.64;100.00;101304.16;6099032;23;20007;-79
2021/10/07 02:38:57;;;;;;;58.83;26.40;;;9.30;99.90;;;10.58;100.00;101302.72;6097370;23;20472;-78
2021/10/07 02:41:23;;;;;;;59.83;27.50;;;9.30;99.90;;;10.63;100.00;101305.31;6072178;23;20352;-79
2021/10/07 02:43:49;;;;;;;62.70;27.80;;;9.30;99.90;;;10.65;100.00;101310.56;6096419;23;20033;-77
2021/10/07 02:46:15;;;;;;;64.72;29.63;;;9.30;99.90;;;10.72;100.00;101310.81;6071010;23;20108;-79
2021/10/07 02:48:42;;;;;;;65.75;27.55;;;9.40;99.90;;;10.81;100.00;101311.56;6095482;23;20329;-79
2021/10/07 02:51:08;;;;;;;68.40;29.77;;;9.40;99.90;;;10.89;100.00;101319.03;6070990;23;20053;-80
2021/10/07 02:53:35;;;;;;;59.50;28.60;;;9.50;99.90;;;10.97;100.00;101320.94;6095862;23;20011;-78
2021/10/07 02:56:00;;;;;;;64.45;29.08;;;9.60;99.90;;;11.07;100.00;101323.28;6096133;23;20026;-78
2021/10/07 02:58:26;;;;;;;57.42;26.23;;;9.70;99.90;;;11.15;100.00;101330.75;6070397;23;20006;-80
2021/10/07 03:00:52;;;;;;;54.45;25.67;;;9.70;99.90;;;11.22;100.00;101331.00;6070725;23;20017;-80
2021/10/07 03:03:18;;;;;;;66.15;28.63;;;9.80;99.90;;;11.27;100.00;101325.19;6096322;23;20082;-79
2021/10/07 03:05:44;;;;;;;62.65;26.48;;;9.90;99.90;;;11.33;100.00;101337.00;6096328;23;20010;-81
2021/10/07 03:08:10;;;;;;;75.60;31.48;;;9.90;99.90;;;11.35;100.00;101332.69;6096001;23;20010;-79
2021/10/07 03:10:35;;;;;;;66.00;27.45;;;10.00;99.90;;;11.37;100.00;101340.69;6094248;23;20014;-79
2021/10/07 03:13:01;;;;;;;58.28;26.33;;;10.00;99.90;;;11.43;100.00;101342.13;6095925;23;20034;-78
2021/10/07 03:15:27;;;;;;;78.32;31.75;;;10.00;99.90;;;11.47;100.00;101343.88;6096237;23;20029;-78
2021/10/07 03:17:53;;;;;;;79.68;33.85;;;10.10;99.90;;;11.51;100.00;101346.78;6096428;23;20002;-80
2021/10/07 03:20:19;;;;;;;76.60;31.52;;;10.10;99.90;;;11.56;100.00;101354.94;6096454;23;20010;-78
2021/10/07 03:22:45;;;;;;;72.60;29.35;;;10.10;99.90;;;11.56;100.00;101354.94;6094359;23;20436;-79
2021/10/07 03:25:11;;;;;;;69.93;27.38;;;10.10;99.90;;;11.57;100.00;101356.59;6095893;23;20021;-80
2021/10/07 03:27:38;;;;;;;58.97;25.55;;;10.10;99.90;;;11.61;100.00;101366.75;6099288;23;20006;-78
2021/10/07 03:30:09;;;;;;;73.97;29.65;;;10.20;99.90;;;11.60;100.00;101365.13;6076044;23;20010;-79
2021/10/07 03:32:35;;;;;;;66.35;28.40;;;10.20;99.90;;;11.56;100.00;101366.16;6048342;23;20018;-81
2021/10/07 03:35:01;;;;;;;73.32;26.77;;;10.20;99.90;;;11.50;100.00;101373.13;6098083;23;20006;-78
2021/10/07 03:37:27;;;;;;;59.05;25.23;;;10.10;99.90;;;11.50;100.00;101373.13;6097865;23;20073;-79
2021/10/07 03:39:53;;;;;;;52.05;24.33;;;10.10;99.90;;;11.52;100.00;101377.25;6097699;23;20357;-79
2021/10/07 03:42:19;;;;;;;62.35;24.27;;;10.10;99.90;;;11.54;100.00;101379.66;6097924;23;20006;-79
2021/10/07 03:44:45;;;;;;;96.38;27.13;;;10.10;99.90;;;11.56;100.00;101383.75;6095795;23;20018;-79
2021/10/07 03:47:10;;;;;;;60.70;26.55;;;10.10;99.90;;;11.56;100.00;101380.13;6097429;23;20092;-80
2021/10/07 03:49:36;;;;;;;64.70;28.23;;;10.20;99.90;;;11.59;100.00;101383.06;6097792;23;20042;-75
2021/10/07 03:52:02;;;;;;;52.28;23.63;;;10.20;99.90;;;11.61;100.00;101385.53;6097476;23;20050;-79
2021/10/07 03:54:28;;;;;;;55.67;25.27;;;10.20;99.90;;;11.60;100.00;101397.88;6097829;23;20344;-79
2021/10/07 03:56:54;;;;;;;59.00;25.52;;;10.20;99.90;;;11.58;100.00;101392.63;6098108;23;20003;-79
2021/10/07 03:59:20;;;;;;;59.15;25.80;;;10.20;99.90;;;11.54;100.00;101393.66;6097989;23;20011;-78
2021/10/07 04:01:46;;;;;;;54.47;24.10;;;10.20;99.90;;;11.50;100.00;101392.72;6097559;23;20014;-79
2021/10/07 04:04:11;;;;;;;49.88;23.42;;;10.10;99.90;;;11.50;100.00;101398.31;6097363;23;20395;-77
2021/10/07 04:06:37;;;;;;;57.95;23.60;;;10.10;99.90;;;11.53;100.00;101406.00;6071489;23;20014;-79
2021/10/07 04:09:03;;;;;;;54.00;24.80;;;10.10;99.90;;;11.55;100.00;101412.91;6097166;23;20006;-80
2021/10/07 04:11:29;;;;;;;60.83;25.63;;;10.10;99.90;;;11.58;100.00;101414.19;6097726;23;20004;-76
2021/10/07 04:13:55;;;;;;;66.68;27.17;;;10.10;99.90;;;11.55;100.00;101414.88;6071820;23;20123;-77
2021/10/07 04:16:21;;;;;;;66.03;26.13;;;10.10;99.90;;;11.41;100.00;101408.78;6095985;23;20003;-77
2021/10/07 04:18:47;;;;;;;57.58;24.67;;;10.10;99.90;;;11.37;100.00;101413.41;6097118;23;20098;-79
2021/10/07 04:21:13;;;;;;;59.20;25.40;;;10.10;99.90;;;11.40;100.00;101424.75;6096946;23;20013;-78
2021/10/07 04:23:39;;;;;;;64.82;27.35;;;10.10;99.90;;;11.35;100.00;101419.38;6096838;23;20339;-79
2021/10/07 04:26:06;;;;;;;68.85;26.90;;;10.10;99.90;;;11.33;100.00;101418.09;6071640;23;20006;-79
2021/10/07 04:28:35;;;;;;;66.35;26.95;;;10.10;99.90;;;11.31;100.00;101426.00;6097716;23;20009;-79
2021/10/07 04:31:01;;;;;;;66.38;26.77;;;10.10;99.90;;;11.28;100.00;101423.88;6048153;23;20023;-78
2021/10/07 04:33:27;;;;;;;61.58;24.98;;;10.00;99.90;;;11.29;100.00;101415.16;6097823;23;20002;-76
2021/10/07 04:35:54;;;;;;;57.60;24.27;;;10.00;99.90;;;11.29;100.00;101431.13;6097278;23;20006;-77
2021/10/07 04:38:20;;;;;;;73.32;27.80;;;10.00;99.90;;;11.29;100.00;101439.50;6097292;23;20017;-76
2021/10/07 04:40:46;;;;;;;86.88;25.70;;;10.00;99.90;;;11.22;100.00;101447.63;6071605;23;20018;-79
2021/10/07 04:43:12;;;;;;;111.82;29.30;;;10.00;99.90;;;11.16;100.00;101451.81;6097440;23;20018;-78
2021/10/07 04:45:37;;;;;;;70.68;27.80;;;10.00;99.90;;;11.15;100.00;101444.56;6096888;23;20058;-79
2021/10/07 04:48:04;;;;;;;77.10;29.08;;;10.00;99.90;;;11.21;100.00;101448.78;6095199;23;20014;-79
2021/10/07 04:50:30;;;;;;;87.95;29.17;;;10.00;99.90;;;11.25;100.00;101455.34;6097080;23;20026;-78
2021/10/07 04:52:56;;;;;;;74.50;27.58;;;10.00;99.90;;;11.25;100.00;101458.94;6095560;23;20010;-77
2021/10/07 04:55:22;;;;;;;75.55;27.30;;;10.00;99.90;;;11.28;100.00;101455.47;6096901;23;20011;-78
2021/10/07 04:57:48;;;;;;;86.25;30.77;;;10.00;99.90;;;11.28;100.00;101461.06;6098534;23;20020;-80
2021/10/07 05:00:14;;;;;;;88.22;29.63;;;10.00;99.90;;;11.29;100.00;101456.28;6098896;23;20314;-80
2021/10/07 05:02:40;;;;;;;68.95;27.15;;;10.00;99.90;;;11.32;100.00;101466.78;6097329;23;20006;-79
2021/10/07 05:05:09;;;;;;;80.07;27.77;;;10.00;99.90;;;11.32;100.00;101456.44;6071833;23;20022;-78
2021/10/07 05:07:35;;;;;;;71.40;26.50;;;10.00;99.90;;;11.31;100.00;101457.56;6097717;23;20069;-81
2021/10/07 05:10:02;;;;;;;77.13;26.27;;;10.00;99.90;;;11.31;100.00;101467.94;6096927;23;20006;-79
2021/10/07 05:12:27;;;;;;;74.10;25.58;;;10.00;99.90;;;11.32;100.00;101469.59;6097414;23;20332;-80
2021/10/07 05:14:53;;;;;;;85.80;27.48;;;10.10;99.90;;;11.37;100.00;101470.19;6097944;23;20102;-77
2021/10/07 05:17:19;;;;;;;86.93;28.90;;;10.10;99.90;;;11.38;100.00;101476.59;6097126;23;20002;-78
2021/10/07 05:19:45;;;;;;;97.85;30.83;;;10.10;99.90;;;11.40;100.00;101475.09;6070682;23;20044;-79
2021/10/07 05:22:11;;;;;;;92.28;29.45;;;10.10;99.90;;;11.50;100.00;101485.03;6096648;23;20007;-80
2021/10/07 05:24:36;;;;;;;109.80;34.90;;;10.10;99.90;;;11.48;100.00;101499.38;6071848;23;20089;-78
2021/10/07 05:27:04;;;;;;;96.68;29.98;;;10.10;99.90;;;11.54;100.00;101497.19;6098105;23;20006;-78
2021/10/07 05:29:30;;;;;;;94.30;30.27;;;10.10;99.90;;;11.54;100.00;101495.19;6072452;23;20010;-78
2021/10/07 05:31:56;;;;;;;93.70;31.00;;;10.10;99.90;;;11.55;100.00;101498.81;6099387;23;20014;-80
2021/10/07 05:34:22;;;;;;;100.38;31.75;;;10.10;99.90;;;11.52;100.00;101500.34;6098642;23;20081;-80
2021/10/07 05:36:47;;;;;;;84.07;29.90;;;10.10;99.90;;;11.52;100.00;101511.53;6098964;23;20061;-78
2021/10/07 05:39:13;;;;;;;73.20;28.52;;;10.10;99.90;;;11.54;100.00;101509.19;6073853;23;20010;-84
2021/10/07 05:41:39;;;;;;;80.50;26.52;;;10.10;99.90;;;11.54;100.00;101508.38;6099147;23;20006;-79
2021/10/07 05:44:10;;;;;;;64.18;25.45;;;10.10;99.90;;;11.52;100.00;101505.09;6097829;23;20341;-78
2021/10/07 05:46:37;;;;;;;78.15;28.23;;;10.10;99.90;;;11.53;100.00;101515.13;6096589;23;20018;-77
2021/10/07 05:49:06;;;;;;;64.05;27.08;;;10.10;99.90;;;11.49;100.00;101514.19;6097840;23;20018;-76
2021/10/07 05:51:33;;;;;;;63.88;27.38;;;10.00;99.90;;;11.49;100.00;101519.78;6098529;23;20309;-80
2021/10/07 05:53:59;;;;;;;81.32;29.73;;;10.00;99.90;;;11.43;100.00;101516.38;6073396;23;20036;-79
2021/10/07 05:56:26;;;;;;;63.92;26.85;;;10.00;99.90;;;11.43;100.00;101518.38;6073701;23;20566;-79
2021/10/07 05:58:52;;;;;;;63.97;25.50;;;10.00;99.90;;;11.41;100.00;101527.09;6073255;23;20013;-80
2021/10/07 06:01:18;;;;;;;68.75;25.63;;;10.00;99.90;;;11.45;100.00;101521.63;6097630;23;20229;-79
2021/10/07 06:03:44;;;;;;;61.47;23.70;;;10.00;99.90;;;11.45;100.00;101528.03;6098211;23;20006;-79
2021/10/07 06:06:10;;;;;;;63.72;25.92;;;10.00;99.90;;;11.45;100.00;101532.81;6099090;23;20013;-81
2021/10/07 06:08:36;;;;;;;64.57;25.38;;;10.00;99.90;;;11.44;100.00;101531.16;6073779;23;20013;-79
2021/10/07 06:11:03;;;;;;;64.30;24.92;;;10.00;99.90;;;11.41;100.00;101537.44;6098235;23;20006;-80
2021/10/07 06:13:30;;;;;;;62.33;25.42;;;10.00;99.90;;;11.42;100.00;101539.91;6101811;23;20032;-82
2021/10/07 06:15:56;;;;;;;69.68;26.55;;;10.00;99.90;;;11.42;100.00;101539.09;6101036;23;20010;-81
2021/10/07 06:18:22;;;;;;;75.70;29.45;;;10.00;99.90;;;11.44;100.00;101536.75;6075908;23;20451;-82
2021/10/07 06:20:48;;;;;;;66.78;27.98;;;10.00;99.90;;;11.45;100.00;101544.00;6098695;23;20006;-81
2021/10/07 06:23:14;;;;;;;62.88;26.92;;;10.00;99.90;;;11.45;100.00;101544.00;6077034;23;20010;-80
2021/10/07 06:25:40;;;;;;;64.05;27.23;;;10.00;99.90;;;11.48;100.00;101549.75;6094227;23;20011;-80
2021/10/07 06:28:07;;;;;;;67.97;26.75;;;10.00;99.90;;;11.50;100.00;101554.97;6118576;23;20010;-80
2021/10/07 06:30:36;;;;;;;61.58;25.23;;;10.10;99.90;;;11.52;100.00;101566.66;6118876;23;20014;-80
2021/10/07 06:33:03;;;;;;;69.43;28.00;;;10.10;99.90;;;11.54;100.00;101572.72;6051360;23;20077;-80
2021/10/07 06:35:29;;;;;;;63.22;25.50;;;10.10;99.90;;;11.52;100.00;101570.28;6098420;23;20358;-81
2021/10/07 06:37:55;;;;;;;59.72;24.85;;;10.10;99.90;;;11.59;100.00;101570.53;6098053;23;20006;-79
2021/10/07 06:40:20;;;;;;;69.18;26.00;;;10.10;99.90;;;11.62;100.00;101572.63;6098683;23;20097;-79
2021/10/07 06:42:47;;;;;;;55.80;24.45;;;10.20;99.90;;;11.69;100.00;101571.28;6099023;23;20003;-79
2021/10/07 06:45:14;;;;;;;65.18;24.23;;;10.20;99.90;;;11.72;100.00;101571.44;6073338;23;20006;-81
2021/10/07 06:47:40;;;;;;;67.97;26.90;;;10.30;99.90;;;11.76;100.00;101580.78;6098566;23;20002;-79
2021/10/07 06:50:11;;;;;;;71.35;28.20;;;10.30;99.90;;;11.76;100.00;101588.34;6073205;23;20061;-79
2021/10/07 06:52:41;;;;;;;68.15;28.17;;;10.30;99.90;;;11.75;100.00;101583.94;6025943;23;20007;-80
2021/10/07 06:55:10;;;;;;;62.95;25.33;;;10.30;99.90;;;11.79;100.00;101582.06;6072814;23;20010;-80
2021/10/07 06:57:41;;;;;;;67.22;26.52;;;10.30;99.90;;;11.83;100.00;101589.44;6096888;23;20281;-81
2021/10/07 07:00:10;;;;;;;65.97;25.80;;;10.30;99.90;;;11.82;100.00;101599.00;6099349;23;20017;-77
2021/10/07 07:02:40;;;;;;;64.50;23.88;;;10.30;99.90;;;11.86;100.00;101602.75;6075098;23;20463;-79
2021/10/07 07:05:09;;;;;;;60.38;24.98;;;10.40;99.90;;;11.89;100.00;101604.84;6101595;23;20010;-80
2021/10/07 07:07:36;;;;;;;51.95;21.75;;;10.30;99.90;;;11.93;100.00;101605.00;6076442;23;20010;-81
2021/10/07 07:10:06;;;;;;;64.00;25.17;;;10.40;99.90;;;11.96;100.00;101621.09;6099283;23;20142;-78
2021/10/07 07:12:31;;;;;;;58.28;24.83;;;10.40;99.90;;;11.99;100.00;101629.63;6052321;23;20013;-80
2021/10/07 07:14:57;;;;;;;66.53;26.42;;;10.40;99.90;;;12.03;100.00;101624.16;6100608;23;20010;-81
2021/10/07 07:17:23;;;;;;;64.22;25.45;;;10.50;99.90;;;12.04;100.00;101625.81;6100675;23;20021;-79
2021/10/07 07:19:51;;;;;;;57.70;23.83;;;10.50;99.90;;;12.06;100.00;101618.69;6101408;23;20014;-80
2021/10/07 07:22:17;;;;;;;63.92;25.95;;;10.50;99.90;;;12.06;100.00;101618.69;6102374;23;20011;-78
2021/10/07 07:24:43;;;;;;;67.53;26.23;;;10.50;99.90;;;12.06;100.00;101618.69;6101138;23;20346;-80
2021/10/07 07:27:11;;;;;;;71.82;28.65;;;10.50;99.90;;;12.09;100.00;101632.00;6074148;23;20021;-77
2021/10/07 07:29:37;;;;;;;61.90;27.92;;;10.50;99.90;;;12.06;100.00;101627.09;6075044;23;20371;-80
2021/10/07 07:32:04;;;;;;;68.10;27.85;;;10.50;99.90;;;12.08;100.00;101633.16;6075391;23;20007;-79
2021/10/07 07:34:30;;;;;;;59.55;26.05;;;10.60;99.90;;;12.02;100.00;101633.72;6073888;23;20018;-80
2021/10/07 07:36:56;;;;;;;68.57;27.33;;;10.60;99.90;;;12.04;100.00;101637.81;6100669;23;20078;-78
2021/10/07 07:39:21;;;;;;;65.53;26.55;;;10.50;99.90;;;12.03;100.00;101639.00;6075090;23;20010;-80
2021/10/07 07:41:47;;;;;;;54.70;23.25;;;10.60;99.90;;;12.13;100.00;101644.16;6099199;23;20066;-80
2021/10/07 07:44:13;;;;;;;56.58;24.05;;;10.60;99.90;;;12.18;100.00;101639.50;6099750;23;20389;-80
2021/10/07 07:46:39;;;;;;;47.30;22.38;;;10.60;99.90;;;12.23;100.00;101654.13;6099332;23;20010;-82
2021/10/07 07:49:05;;;;;;;73.95;30.02;;;10.70;99.90;;;12.29;100.00;101649.09;6099609;23;20006;-78
2021/10/07 07:51:34;;;;;;;73.57;31.40;;;10.70;99.90;;;12.29;100.00;101655.53;6073286;23;20011;-81
2021/10/07 07:54:00;;;;;;;68.78;29.25;;;10.70;99.90;;;12.22;100.00;101657.25;6099172;23;20013;-77
2021/10/07 07:56:27;;;;;;;61.97;24.92;;;10.70;99.90;;;12.23;100.00;101658.91;6098872;23;20006;-78
2021/10/07 07:58:53;;;;;;;76.03;29.67;;;10.70;99.90;;;12.24;100.00;101649.31;6100476;23;20022;-80
2021/10/07 08:01:21;;;;;;;69.53;29.10;;;10.70;99.90;;;12.31;100.00;101657.97;6100883;23;20009;-80
2021/10/07 08:03:48;;;;;;;69.82;29.85;;;10.80;99.90;;;12.33;100.00;101652.88;6099205;23;20057;-79
2021/10/07 08:06:14;;;;;;;71.70;30.25;;;10.80;99.90;;;12.36;100.00;101657.78;6097167;23;20336;-80
2021/10/07 08:08:39;;;;;;;74.15;30.17;;;10.80;99.90;;;12.40;100.00;101669.91;6098187;23;20017;-79
2021/10/07 08:11:05;;;;;;;66.75;27.60;;;10.90;99.90;;;12.43;100.00;101666.41;6099243;23;20018;-80
2021/10/07 08:13:31;;;;;;;63.95;26.83;;;10.90;99.90;;;12.45;100.00;101662.13;6097023;23;20038;-79
2021/10/07 08:15:57;;;;;;;61.97;27.05;;;10.90;99.90;;;12.57;100.00;101664.13;6072421;23;20440;-79
2021/10/07 08:18:23;;;;;;;61.05;27.50;;;11.00;99.90;;;12.71;100.00;101658.19;6070432;23;20183;-82
2021/10/07 08:20:52;;;;;;;59.70;28.52;;;11.10;99.90;;;12.80;100.00;101664.50;6083850;23;20023;-82
2021/10/07 08:23:22;;;;;;;72.45;29.27;;;11.20;99.90;;;12.92;100.00;101662.53;6107110;23;20527;-82
2021/10/07 08:25:49;;;;;;;75.25;30.88;;;11.30;99.90;;;13.04;100.00;101670.13;6107529;23;20014;-81
2021/10/07 08:28:15;;;;;;;68.20;31.52;;;11.40;99.90;;;13.03;100.00;101662.91;6109245;23;20002;-84
2021/10/07 08:30:40;;;;;;;62.03;28.63;;;11.40;99.90;;;13.02;100.00;101670.50;6112150;23;20017;-83
2021/10/07 08:33:06;;;;;;;61.80;27.80;;;11.40;99.90;;;13.10;100.00;101665.94;6114168;23;20026;-82
2021/10/07 08:35:33;;;;;;;57.33;26.92;;;11.50;99.90;;;13.23;100.00;101669.59;6115286;23;20041;-84
2021/10/07 08:38:01;;;;;;;63.92;27.30;;;11.60;99.90;;;13.41;100.00;101674.59;6090062;23;20086;-83
2021/10/07 08:40:27;;;;;;;60.85;27.58;;;11.70;99.90;;;13.57;100.00;101669.91;6115906;23;20168;-83
2021/10/07 08:42:53;;;;;;;51.53;25.98;;;11.90;99.90;;;13.79;100.00;101684.56;6115383;23;20021;-83
2021/10/07 08:45:20;;;;;;;48.53;23.00;;;12.00;99.90;;;13.97;100.00;101681.13;6114663;23;20010;-80
2021/10/07 08:47:47;;;;;;;35.03;18.15;;;12.20;99.90;;;14.21;100.00;101680.22;6114472;23;20014;-80
2021/10/07 08:50:18;;;;;;;29.77;15.80;;;12.40;99.90;;;14.33;99.08;101679.34;6114675;23;20139;-82
2021/10/07 08:52:46;;;;;;;28.80;15.75;;;12.60;99.90;;;14.31;97.23;101676.91;6114705;23;20007;-82
2021/10/07 08:55:12;;;;;;;24.30;13.60;;;12.60;99.90;;;14.58;97.29;101680.88;6089805;23;20007;-83
2021/10/07 08:57:39;;;;;;;31.50;14.77;;;12.70;99.90;;;14.74;94.53;101681.69;6114600;23;20088;-82
2021/10/07 09:00:13;;;;;;;27.98;16.08;;;12.90;99.90;;;14.89;94.38;101692.16;6114486;23;20022;-82
2021/10/07 09:02:42;;;;;;;25.25;14.77;;;13.10;99.90;;;14.99;94.05;101699.25;6088901;23;20021;-84
2021/10/07 09:05:10;;;;;;;23.63;13.68;;;13.20;99.90;;;15.11;92.44;101702.78;6089054;23;20041;-83
2021/10/07 09:08:05;;;;;;;24.40;15.93;;;13.30;99.90;;;15.06;91.10;101705.84;6092151;23;20006;-84
2021/10/07 09:10:51;;;;;;;23.77;13.88;;;13.30;99.90;;;15.01;91.09;101696.88;6089756;23;20057;-84
2021/10/07 09:13:22;;;;;;;;;;;13.30;99.90;;;15.18;90.63;101699.34;6088965;23;20034;-84
2021/10/07 09:16:00;;;;;;;18.90;12.32;;;13.40;99.90;;;15.28;90.52;101693.94;6064977;23;19909;-83
2021/10/07 09:18:32;;;;;;;25.17;14.77;;;13.50;99.90;;;15.38;89.55;101697.41;6112803;23;20010;-83
2021/10/07 09:21:00;;;;;;;27.88;16.85;;;13.60;99.90;;;15.26;89.92;101698.31;6114006;23;20436;-85
2021/10/07 09:23:34;;;;;;;30.30;15.60;;;13.60;99.90;;;15.72;88.96;101696.63;6113300;23;20002;-83
2021/10/07 09:26:12;;;;;;;24.33;14.07;;;13.90;99.90;;;16.26;86.20;101694.59;6090680;23;20037;-84
2021/10/07 09:28:57;;;;;;;24.00;13.10;;;14.30;99.90;;;16.17;83.44;101691.19;6095814;23;20604;-83
2021/10/07 09:31:34;;;;;;;15.55;10.05;;;14.40;99.90;;;16.90;82.79;101701.47;6089744;23;19998;-82
2021/10/07 09:34:06;;;;;;;12.07;8.07;;;14.90;99.90;;;17.81;75.54;101698.56;6090044;23;20034;-84
2021/10/07 09:36:34;;;;;;;12.50;8.40;;;15.70;99.90;;;18.41;74.49;101702.97;6089241;23;20042;-84
2021/10/07 09:39:03;;;;;;;14.40;9.00;;;16.10;99.90;;;17.91;71.66;101712.03;6089422;23;20014;-83
2021/10/07 09:41:33;;;;;;;19.33;11.82;;;16.10;99.90;;;17.82;74.05;101703.00;6065364;23;20042;-82
2021/10/07 09:44:07;;;;;;;21.92;13.20;;;16.10;99.90;;;18.18;73.19;101704.28;6089004;23;20014;-83
2021/10/07 09:46:55;;;;;;;23.90;13.82;;;16.30;99.90;;;18.50;70.25;101705.50;6116961;23;20013;-82
2021/10/07 09:49:34;;;;;;;20.88;12.35;;;16.70;99.90;;;18.42;70.99;101698.94;6091312;23;19997;-85
2021/10/07 09:52:02;;;;;;;19.00;11.93;;;16.60;99.90;;;18.02;70.95;101701.66;6091436;23;20037;-85
2021/10/07 09:54:38;;;;;;;18.25;11.63;;;16.30;99.90;;;17.51;72.98;101703.31;6090915;23;20014;-81
2021/10/07 09:57:04;;;;;;;;;;;15.90;99.90;;;17.58;72.69;101697.78;6089032;23;20006;-83
2021/10/07 09:59:33;;;;;;;18.80;11.32;;;15.80;99.90;;;17.94;70.47;101702.78;6085430;23;19921;-83
2021/10/07 10:02:01;;;;;;;15.93;9.57;;;16.10;99.90;;;18.65;70.43;101698.00;6083110;23;20006;-84
2021/10/07 10:04:31;;;;;;;19.27;11.02;;;16.60;99.90;;;18.86;68.00;101701.88;6085263;23;20010;-83